Pearl, Mississippi
Current Conditions -  °F | °C
As of 3:54 PM on Friday 28 Nov 2014 (Local Time) from KJAN Reporting Station
Clear Clear  
Wind Chill: 59°   Ceiling: Unl
Heat Index: 59°   Visibility: 10mi
Dew Point: 23°   Wind: 8mph
Humidity: 25%   Direction: 180°S
Pressure: 30.25"   Gusts: NA
Location:  32.2996°N, 90.1428°W
Report Text: KJAN 282154Z 18007KT 10SM CLR 15/M05 A3025 RMK AO2 SLP244 T01501050
Loading
Personal Weather Stations






























Interactive Weather Map New forecast layout! Learn more

10-Day Weather Forecast

Advertisements
Track Severe Weather on mobile